Hunter Army Air Field
KSVN : now visible

Airfield :











YOU CAN JOIN US ON...

 
LOGIN :

Register | Disclaimer

   EN    FR    IT 

 









Legend :    VFR   Marginal VFR   IFR   Intensive IFR   Very Intensive IFR
Visi :
Ceiling :
>= 8 km
>= 3000ft
5 to 8 km
1000 to 3000 ft
1500m to 5 km
500 to 1000 ft
800 to 1500m
200 to 500 ft
< 800m
< 200 ft
Symbols :   Thunderstorms  Fog  Heavy snow  Heavy precipitations  Wind > 20 kt







- Airport Elevation : 41 ft


KSVN - Hunter Army Air Field

CURRENT METAR :
  • 191356Z AUTO 18016G29KT 10SM OVC013 24/21 A2969 RMK AO2 PK WND 18031/34 SLP057 T02410208 $

EXPIRED METARs :
  • 191326Z AUTO 18016G28KT 10SM BKN014 24/21 A2970 RMK AO2 SLP060 $
  • 191256Z AUTO 17013G30KT 10SM BKN015 24/21 A2971 RMK AO2 PK WND 17030/51 CIG 014 RWY28 SLP064 T02360209 $
  • 191241Z AUTO 18019G26KT 10SM BKN015 24/21 A2972 RMK AO2 CIG 014 RWY28 SLP067 $
  • 191156Z AUTO 18013G20KT 10SM BKN014 23/20 A2973 RMK AO2 CIG 013 RWY28 SLP070 60008 70008 T02290204 10237 20213 55003 $

TAF TAF KSVN
Valid from the 19 at 12:00 until the 20 at 18:00 UTC


191200Z 1912/2018 17012KT 9999 BKN014 WS020/17045KT 550204 QNH2969INS
BECMG 1913/1914 19020G35KT 4800 SHRA BKN015 550004 QNH2960INS
TEMPO 1916/1922 VRB30G45KT 3200 +TSRAGR OVC015CB
BECMG 2001/2002 23012G25KT 9999 VCTS BKN020CB OVC030 550009 QNH2960INS
BECMG 2003/2004 24012G18KT 9999 NSW SCT030 QNH2975INS
BECMG 2013/2014 24015G30KT 9999 SCT050 QNH2983INS TX27/1918Z TN11/2009Z
KZJX FIR / North America



MET'MAP, your aeronautical weather chart ! - Copyright ORBIFLY December 2007 - Disclaimer

ORBIFLY MET'MAP TEAM :

Programming & Development : Alexandra Zaïnal
Concept & Development : Baudouin d'Aumeries
Co-Development & Prog : Marc-Olivier Méhu
Technical & hardware support : Manuel Goepfert

Contact : metmap@orbifly.com




SOURCES & CREDITS :

   NOAA       Earth
Advisory